sensor_id;sensor_type;location;lat;lon;timestamp;pressure;altitude;pressure_sealevel;temperature;humidity
32320;BME280;19080;51.750;5.888;2024-01-27T00:00:33;103241.75;;;0.93;100.00
32320;BME280;19080;51.750;5.888;2024-01-27T00:03:00;103241.16;;;0.87;100.00
32320;BME280;19080;51.750;5.888;2024-01-27T00:05:27;103242.59;;;0.83;100.00
32320;BME280;19080;51.750;5.888;2024-01-27T00:07:57;103247.38;;;0.79;100.00
32320;BME280;19080;51.750;5.888;2024-01-27T00:10:24;103245.59;;;0.69;100.00
32320;BME280;19080;51.750;5.888;2024-01-27T00:12:50;103250.41;;;0.64;100.00
32320;BME280;19080;51.750;5.888;2024-01-27T00:15:17;103239.09;;;0.55;100.00
32320;BME280;19080;51.750;5.888;2024-01-27T00:17:44;103232.09;;;0.46;100.00
32320;BME280;19080;51.750;5.888;2024-01-27T00:20:11;103259.03;;;0.63;100.00
32320;BME280;19080;51.750;5.888;2024-01-27T00:22:38;103259.03;;;0.63;100.00
32320;BME280;19080;51.750;5.888;2024-01-27T00:25:05;103242.78;;;0.57;100.00
32320;BME280;19080;51.750;5.888;2024-01-27T00:27:32;103268.28;;;0.60;100.00
32320;BME280;19080;51.750;5.888;2024-01-27T00:29:59;103265.09;;;0.54;100.00
32320;BME280;19080;51.750;5.888;2024-01-27T00:32:26;103277.53;;;0.56;100.00
32320;BME280;19080;51.750;5.888;2024-01-27T00:34:52;103279.34;;;0.57;100.00
32320;BME280;19080;51.750;5.888;2024-01-27T00:37:19;103272.25;;;0.65;100.00
32320;BME280;19080;51.750;5.888;2024-01-27T00:39:46;103271.94;;;0.62;100.00
32320;BME280;19080;51.750;5.888;2024-01-27T00:42:12;103267.97;;;0.57;100.00
32320;BME280;19080;51.750;5.888;2024-01-27T00:44:39;103263.53;;;0.56;100.00
32320;BME280;19080;51.750;5.888;2024-01-27T00:47:06;103237.38;;;0.37;100.00
32320;BME280;19080;51.750;5.888;2024-01-27T00:49:32;103268.66;;;0.46;100.00
32320;BME280;19080;51.750;5.888;2024-01-27T00:51:59;103283.28;;;0.44;100.00
32320;BME280;19080;51.750;5.888;2024-01-27T00:54:26;103272.25;;;0.38;100.00
32320;BME280;19080;51.750;5.888;2024-01-27T00:56:53;103282.84;;;0.39;100.00
32320;BME280;19080;51.750;5.888;2024-01-27T00:59:20;103265.41;;;0.21;100.00
32320;BME280;19080;51.750;5.888;2024-01-27T01:01:47;103287.66;;;0.26;100.00
32320;BME280;19080;51.750;5.888;2024-01-27T01:04:13;103284.56;;;0.30;100.00
32320;BME280;19080;51.750;5.888;2024-01-27T01:06:40;103256.50;;;0.19;100.00
32320;BME280;19080;51.750;5.888;2024-01-27T01:09:07;103275.50;;;0.35;100.00
32320;BME280;19080;51.750;5.888;2024-01-27T01:11:35;103266.00;;;0.27;100.00
32320;BME280;19080;51.750;5.888;2024-01-27T01:14:05;103260.03;;;0.19;100.00
32320;BME280;19080;51.750;5.888;2024-01-27T01:16:32;103287.19;;;0.30;100.00
32320;BME280;19080;51.750;5.888;2024-01-27T01:18:59;103279.53;;;0.23;100.00
32320;BME280;19080;51.750;5.888;2024-01-27T01:21:26;103272.47;;;0.22;100.00
32320;BME280;19080;51.750;5.888;2024-01-27T01:23:53;103280.13;;;0.29;100.00
32320;BME280;19080;51.750;5.888;2024-01-27T01:26:20;103268.03;;;0.21;100.00
32320;BME280;19080;51.750;5.888;2024-01-27T01:28:46;103282.94;;;0.22;100.00
32320;BME280;19080;51.750;5.888;2024-01-27T01:31:13;103280.78;;;0.18;100.00
32320;BME280;19080;51.750;5.888;2024-01-27T01:33:40;103270.25;;;0.08;100.00
32320;BME280;19080;51.750;5.888;2024-01-27T01:36:07;103285.72;;;0.15;100.00
32320;BME280;19080;51.750;5.888;2024-01-27T01:38:33;103272.00;;;-0.02;100.00
32320;BME280;19080;51.750;5.888;2024-01-27T01:41:00;103294.66;;;0.08;100.00
32320;BME280;19080;51.750;5.888;2024-01-27T01:43:26;103290.66;;;0.12;100.00
32320;BME280;19080;51.750;5.888;2024-01-27T01:45:53;103291.28;;;0.09;100.00
32320;BME280;19080;51.750;5.888;2024-01-27T01:48:20;103286.78;;;-0.11;100.00
32320;BME280;19080;51.750;5.888;2024-01-27T01:50:47;103303.81;;;-0.06;100.00
32320;BME280;19080;51.750;5.888;2024-01-27T01:53:15;103272.94;;;-0.10;100.00
32320;BME280;19080;51.750;5.888;2024-01-27T01:55:42;103299.25;;;0.11;100.00
32320;BME280;19080;51.750;5.888;2024-01-27T01:58:08;103289.59;;;0.10;100.00
32320;BME280;19080;51.750;5.888;2024-01-27T02:00:35;103291.31;;;0.00;100.00
32320;BME280;19080;51.750;5.888;2024-01-27T02:03:02;103298.38;;;0.02;100.00
32320;BME280;19080;51.750;5.888;2024-01-27T02:05:31;103290.28;;;-0.02;100.00
32320;BME280;19080;51.750;5.888;2024-01-27T02:07:57;103257.00;;;-0.13;100.00
32320;BME280;19080;51.750;5.888;2024-01-27T02:10:26;103299.03;;;-0.01;100.00
32320;BME280;19080;51.750;5.888;2024-01-27T02:12:53;103270.19;;;-0.11;100.00
32320;BME280;19080;51.750;5.888;2024-01-27T02:15:19;103304.81;;;0.05;100.00
32320;BME280;19080;51.750;5.888;2024-01-27T02:17:48;103295.66;;;0.00;100.00
32320;BME280;19080;51.750;5.888;2024-01-27T02:20:15;103280.88;;;0.00;100.00
32320;BME280;19080;51.750;5.888;2024-01-27T02:22:41;103292.88;;;-0.02;100.00
32320;BME280;19080;51.750;5.888;2024-01-27T02:25:08;103277.88;;;-0.13;100.00
32320;BME280;19080;51.750;5.888;2024-01-27T02:27:35;103254.56;;;-0.20;100.00
32320;BME280;19080;51.750;5.888;2024-01-27T02:30:02;103286.91;;;-0.09;100.00
32320;BME280;19080;51.750;5.888;2024-01-27T02:32:28;103295.66;;;-0.09;100.00
32320;BME280;19080;51.750;5.888;2024-01-27T02:34:55;103276.69;;;-0.25;100.00
32320;BME280;19080;51.750;5.888;2024-01-27T02:37:22;103292.31;;;-0.16;100.00
32320;BME280;19080;51.750;5.888;2024-01-27T02:39:48;103307.53;;;-0.21;100.00
32320;BME280;19080;51.750;5.888;2024-01-27T02:42:15;103301.06;;;-0.16;100.00
32320;BME280;19080;51.750;5.888;2024-01-27T02:44:42;103302.44;;;-0.11;100.00
32320;BME280;19080;51.750;5.888;2024-01-27T02:47:08;103303.22;;;-0.12;100.00
32320;BME280;19080;51.750;5.888;2024-01-27T02:49:35;103302.91;;;-0.15;100.00
32320;BME280;19080;51.750;5.888;2024-01-27T02:52:02;103307.66;;;-0.11;100.00
32320;BME280;19080;51.750;5.888;2024-01-27T02:54:29;103307.34;;;-0.14;100.00
32320;BME280;19080;51.750;5.888;2024-01-27T02:56:56;103302.00;;;-0.24;100.00
32320;BME280;19080;51.750;5.888;2024-01-27T02:59:23;103303.06;;;-0.22;100.00
32320;BME280;19080;51.750;5.888;2024-01-27T03:01:50;103292.63;;;-0.22;100.00
32320;BME280;19080;51.750;5.888;2024-01-27T03:04:16;103315.66;;;-0.18;100.00
32320;BME280;19080;51.750;5.888;2024-01-27T03:06:43;103307.06;;;-0.17;100.00
32320;BME280;19080;51.750;5.888;2024-01-27T03:09:11;103290.78;;;-0.23;100.00
32320;BME280;19080;51.750;5.888;2024-01-27T03:11:38;103261.19;;;-0.32;100.00
32320;BME280;19080;51.750;5.888;2024-01-27T03:14:05;103295.69;;;-0.17;100.00
32320;BME280;19080;51.750;5.888;2024-01-27T03:16:31;103292.63;;;-0.22;100.00
32320;BME280;19080;51.750;5.888;2024-01-27T03:18:59;103285.72;;;-0.21;100.00
32320;BME280;19080;51.750;5.888;2024-01-27T03:21:26;103290.31;;;-0.19;100.00
32320;BME280;19080;51.750;5.888;2024-01-27T03:23:52;103270.25;;;-0.28;100.00
32320;BME280;19080;51.750;5.888;2024-01-27T03:26:19;103267.19;;;-0.33;100.00
32320;BME280;19080;51.750;5.888;2024-01-27T03:28:46;103299.22;;;-0.17;100.00
32320;BME280;19080;51.750;5.888;2024-01-27T03:31:13;103309.66;;;-0.17;100.00
32320;BME280;19080;51.750;5.888;2024-01-27T03:33:39;103278.53;;;-0.24;100.00
32320;BME280;19080;51.750;5.888;2024-01-27T03:36:10;103285.09;;;-0.19;100.00
32320;BME280;19080;51.750;5.888;2024-01-27T03:38:39;103276.06;;;-0.22;100.00
32320;BME280;19080;51.750;5.888;2024-01-27T03:41:06;103302.44;;;-0.11;100.00
32320;BME280;19080;51.750;5.888;2024-01-27T03:43:34;103302.44;;;-0.11;100.00
32320;BME280;19080;51.750;5.888;2024-01-27T03:46:00;103323.75;;;-0.06;100.00
32320;BME280;19080;51.750;5.888;2024-01-27T03:48:27;103316.88;;;-0.14;100.00
32320;BME280;19080;51.750;5.888;2024-01-27T03:50:54;103309.16;;;-0.04;100.00
32320;BME280;19080;51.750;5.888;2024-01-27T03:53:21;103323.16;;;-0.04;100.00
32320;BME280;19080;51.750;5.888;2024-01-27T03:55:47;103286.31;;;-0.15;100.00
32320;BME280;19080;51.750;5.888;2024-01-27T03:58:14;103306.72;;;-0.11;100.00
32320;BME280;19080;51.750;5.888;2024-01-27T04:00:40;103312.56;;;-0.14;100.00
32320;BME280;19080;51.750;5.888;2024-01-27T04:03:11;103311.97;;;-0.20;100.00
32320;BME280;19080;51.750;5.888;2024-01-27T04:05:38;103318.41;;;-0.16;100.00
32320;BME280;19080;51.750;5.888;2024-01-27T04:08:05;103321.81;;;-0.17;100.00
32320;BME280;19080;51.750;5.888;2024-01-27T04:10:32;103323.97;;;-0.22;100.00
32320;BME280;19080;51.750;5.888;2024-01-27T04:12:59;103302.47;;;-0.28;100.00
32320;BME280;19080;51.750;5.888;2024-01-27T04:15:26;103332.22;;;-0.09;100.00
32320;BME280;19080;51.750;5.888;2024-01-27T04:17:54;103335.91;;;-0.07;100.00
32320;BME280;19080;51.750;5.888;2024-01-27T04:20:21;103338.31;;;0.00;100.00
32320;BME280;19080;51.750;5.888;2024-01-27T04:22:48;103334.91;;;0.02;100.00
32320;BME280;19080;51.750;5.888;2024-01-27T04:25:14;103339.88;;;-0.02;100.00
32320;BME280;19080;51.750;5.888;2024-01-27T04:27:41;103331.59;;;-0.06;100.00
32320;BME280;19080;51.750;5.888;2024-01-27T04:30:11;103322.38;;;-0.03;100.00
32320;BME280;19080;51.750;5.888;2024-01-27T04:32:38;103322.56;;;-0.10;100.00
32320;BME280;19080;51.750;5.888;2024-01-27T04:35:08;103328.25;;;-0.14;100.00
32320;BME280;19080;51.750;5.888;2024-01-27T04:37:36;103290.06;;;-0.39;100.00
32320;BME280;19080;51.750;5.888;2024-01-27T04:40:04;103336.53;;;-0.18;100.00
32320;BME280;19080;51.750;5.888;2024-01-27T04:42:37;103330.25;;;-0.20;100.00
32320;BME280;19080;51.750;5.888;2024-01-27T04:45:07;103327.34;;;-0.23;100.00
32320;BME280;19080;51.750;5.888;2024-01-27T04:47:34;103315.38;;;-0.38;100.00
32320;BME280;19080;51.750;5.888;2024-01-27T04:50:01;103325.66;;;-0.31;100.00
32320;BME280;19080;51.750;5.888;2024-01-27T04:52:29;103326.25;;;-0.25;100.00
32320;BME280;19080;51.750;5.888;2024-01-27T04:54:56;103329.34;;;-0.29;100.00
32320;BME280;19080;51.750;5.888;2024-01-27T04:57:23;103308.34;;;-0.48;100.00
32320;BME280;19080;51.750;5.888;2024-01-27T04:59:49;103314.16;;;-0.42;100.00
32320;BME280;19080;51.750;5.888;2024-01-27T05:02:17;103312.66;;;-0.48;100.00
32320;BME280;19080;51.750;5.888;2024-01-27T05:04:44;103334.13;;;-0.42;100.00
32320;BME280;19080;51.750;5.888;2024-01-27T05:07:11;103326.47;;;-0.49;100.00
32320;BME280;19080;51.750;5.888;2024-01-27T05:09:37;103326.75;;;-0.46;100.00
32320;BME280;19080;51.750;5.888;2024-01-27T05:12:04;103334.13;;;-0.42;100.00
32320;BME280;19080;51.750;5.888;2024-01-27T05:14:31;103328.91;;;-0.42;100.00
32320;BME280;19080;51.750;5.888;2024-01-27T05:16:58;103321.84;;;-0.43;100.00
32320;BME280;19080;51.750;5.888;2024-01-27T05:19:24;103310.03;;;-0.48;100.00
32320;BME280;19080;51.750;5.888;2024-01-27T05:21:51;103311.09;;;-0.46;100.00
32320;BME280;19080;51.750;5.888;2024-01-27T05:24:18;103319.53;;;-0.40;100.00
32320;BME280;19080;51.750;5.888;2024-01-27T05:26:44;103317.69;;;-0.41;100.00
32320;BME280;19080;51.750;5.888;2024-01-27T05:29:11;103314.03;;;-0.43;100.00
32320;BME280;19080;51.750;5.888;2024-01-27T05:31:38;103297.31;;;-0.62;100.00
32320;BME280;19080;51.750;5.888;2024-01-27T05:34:04;103311.56;;;-0.50;100.00
32320;BME280;19080;51.750;5.888;2024-01-27T05:36:31;103304.81;;;-0.48;100.00
32320;BME280;19080;51.750;5.888;2024-01-27T05:38:58;103316.03;;;-0.49;100.00
32320;BME280;19080;51.750;5.888;2024-01-27T05:41:26;103313.88;;;-0.53;100.00
32320;BME280;19080;51.750;5.888;2024-01-27T05:43:56;103313.25;;;-0.51;100.00
32320;BME280;19080;51.750;5.888;2024-01-27T05:46:26;103314.78;;;-0.53;100.00
32320;BME280;19080;51.750;5.888;2024-01-27T05:48:52;103303.91;;;-0.57;100.00
32320;BME280;19080;51.750;5.888;2024-01-27T05:51:21;103312.66;;;-0.48;100.00
32320;BME280;19080;51.750;5.888;2024-01-27T05:53:49;103310.81;;;-0.58;100.00
32320;BME280;19080;51.750;5.888;2024-01-27T05:56:16;103303.28;;;-0.63;100.00
32320;BME280;19080;51.750;5.888;2024-01-27T05:58:47;103312.66;;;-0.66;100.00
32320;BME280;19080;51.750;5.888;2024-01-27T06:01:14;103316.03;;;-0.58;100.00
32320;BME280;19080;51.750;5.888;2024-01-27T06:03:42;103293.78;;;-0.63;100.00
32320;BME280;19080;51.750;5.888;2024-01-27T06:06:09;103310.19;;;-0.47;100.00
32320;BME280;19080;51.750;5.888;2024-01-27T06:08:36;103284.41;;;-0.52;100.00
32320;BME280;19080;51.750;5.888;2024-01-27T06:11:03;103323.06;;;-0.40;100.00
32320;BME280;19080;51.750;5.888;2024-01-27T06:13:32;103314.78;;;-0.44;100.00
32320;BME280;19080;51.750;5.888;2024-01-27T06:16:00;103314.47;;;-0.47;100.00
32320;BME280;19080;51.750;5.888;2024-01-27T06:18:27;103313.88;;;-0.53;100.00
32320;BME280;19080;51.750;5.888;2024-01-27T06:20:54;103302.84;;;-0.59;100.00
32320;BME280;19080;51.750;5.888;2024-01-27T06:23:21;103328.91;;;-0.59;100.00
32320;BME280;19080;51.750;5.888;2024-01-27T06:25:47;103325.22;;;-0.61;100.00
32320;BME280;19080;51.750;5.888;2024-01-27T06:28:14;103325.53;;;-0.58;100.00
32320;BME280;19080;51.750;5.888;2024-01-27T06:30:41;103322.63;;;-0.61;100.00
32320;BME280;19080;51.750;5.888;2024-01-27T06:33:07;103336.44;;;-0.62;100.00
32320;BME280;19080;51.750;5.888;2024-01-27T06:35:34;103328.31;;;-0.66;100.00
32320;BME280;19080;51.750;5.888;2024-01-27T06:38:01;103324.63;;;-0.68;100.00
32320;BME280;19080;51.750;5.888;2024-01-27T06:40:27;103323.09;;;-0.74;100.00
32320;BME280;19080;51.750;5.888;2024-01-27T06:42:54;103317.09;;;-0.82;100.00
32320;BME280;19080;51.750;5.888;2024-01-27T06:45:20;103328.91;;;-0.77;100.00
32320;BME280;19080;51.750;5.888;2024-01-27T06:47:47;103324.94;;;-0.82;100.00
32320;BME280;19080;51.750;5.888;2024-01-27T06:50:14;103319.72;;;-0.82;100.00
32320;BME280;19080;51.750;5.888;2024-01-27T06:52:41;103328.75;;;-0.87;100.00
32320;BME280;19080;51.750;5.888;2024-01-27T06:55:08;103317.41;;;-0.87;100.00
32320;BME280;19080;51.750;5.888;2024-01-27T06:57:37;103330.91;;;-0.83;100.00
32320;BME280;19080;51.750;5.888;2024-01-27T07:00:04;103309.28;;;-0.99;100.00
32320;BME280;19080;51.750;5.888;2024-01-27T07:02:31;103331.38;;;-0.87;100.00
32320;BME280;19080;51.750;5.888;2024-01-27T07:04:57;103336.28;;;-0.90;100.00
32320;BME280;19080;51.750;5.888;2024-01-27T07:07:28;103335.97;;;-0.93;100.00
32320;BME280;19080;51.750;5.888;2024-01-27T07:09:55;103344.84;;;-0.91;100.00
32320;BME280;19080;51.750;5.888;2024-01-27T07:12:22;103342.41;;;-0.89;100.00
32320;BME280;19080;51.750;5.888;2024-01-27T07:14:49;103352.84;;;-0.81;100.00
32320;BME280;19080;51.750;5.888;2024-01-27T07:17:15;103331.38;;;-0.87;100.00
32320;BME280;19080;51.750;5.888;2024-01-27T07:19:42;103353.31;;;-0.76;100.00
32320;BME280;19080;51.750;5.888;2024-01-27T07:22:09;103352.38;;;-0.77;100.00
32320;BME280;19080;51.750;5.888;2024-01-27T07:24:36;103369.72;;;-0.77;100.00
32320;BME280;19080;51.750;5.888;2024-01-27T07:27:03;103373.09;;;-0.70;100.00
32320;BME280;19080;51.750;5.888;2024-01-27T07:29:30;103348.84;;;-0.86;100.00
32320;BME280;19080;51.750;5.888;2024-01-27T07:31:57;103369.13;;;-0.66;100.00
32320;BME280;19080;51.750;5.888;2024-01-27T07:34:24;103367.59;;;-0.64;100.00
32320;BME280;19080;51.750;5.888;2024-01-27T07:36:50;103373.72;;;-0.63;100.00
32320;BME280;19080;51.750;5.888;2024-01-27T07:39:18;103377.88;;;-0.57;100.00
32320;BME280;19080;51.750;5.888;2024-01-27T07:41:44;103370.97;;;-0.56;100.00
32320;BME280;19080;51.750;5.888;2024-01-27T07:44:13;103376.78;;;-0.50;100.00
32320;BME280;19080;51.750;5.888;2024-01-27T07:46:41;103380.47;;;-0.48;100.00
32320;BME280;19080;51.750;5.888;2024-01-27T07:49:09;103374.03;;;-0.43;100.00
32320;BME280;19080;51.750;5.888;2024-01-27T07:51:38;103392.44;;;-0.42;100.00
32320;BME280;19080;51.750;5.888;2024-01-27T07:54:05;103389.06;;;-0.32;100.00
32320;BME280;19080;51.750;5.888;2024-01-27T07:56:31;103395.19;;;-0.14;100.00
32320;BME280;19080;51.750;5.888;2024-01-27T07:58:58;103399.09;;;0.17;100.00
32320;BME280;19080;51.750;5.888;2024-01-27T08:01:24;103384.81;;;0.58;100.00
32320;BME280;19080;51.750;5.888;2024-01-27T08:03:51;103383.66;;;1.01;100.00
32320;BME280;19080;51.750;5.888;2024-01-27T08:06:28;103390.06;;;1.32;100.00
32320;BME280;19080;51.750;5.888;2024-01-27T08:08:56;103362.44;;;2.02;100.00
32320;BME280;19080;51.750;5.888;2024-01-27T08:11:23;103388.94;;;3.13;100.00
32320;BME280;19080;51.750;5.888;2024-01-27T08:13:51;103393.63;;;4.32;100.00
32320;BME280;19080;51.750;5.888;2024-01-27T08:16:18;103379.44;;;5.41;100.00
32320;BME280;19080;51.750;5.888;2024-01-27T08:18:44;103378.56;;;6.22;100.00
32320;BME280;19080;51.750;5.888;2024-01-27T08:21:12;103381.75;;;6.78;100.00
32320;BME280;19080;51.750;5.888;2024-01-27T08:23:38;103387.78;;;7.27;100.00
32320;BME280;19080;51.750;5.888;2024-01-27T08:26:05;103388.28;;;7.59;100.00
32320;BME280;19080;51.750;5.888;2024-01-27T08:28:32;103375.84;;;7.45;100.00
32320;BME280;19080;51.750;5.888;2024-01-27T08:30:59;103385.69;;;7.34;100.00
32320;BME280;19080;51.750;5.888;2024-01-27T08:33:26;103381.56;;;7.51;100.00
32320;BME280;19080;51.750;5.888;2024-01-27T08:35:53;103363.06;;;7.64;100.00
32320;BME280;19080;51.750;5.888;2024-01-27T08:38:20;103362.22;;;7.39;100.00
32320;BME280;19080;51.750;5.888;2024-01-27T08:40:46;103388.38;;;7.61;100.00
32320;BME280;19080;51.750;5.888;2024-01-27T08:43:13;103382.03;;;7.32;100.00
32320;BME280;19080;51.750;5.888;2024-01-27T08:45:40;103396.00;;;7.18;100.00
32320;BME280;19080;51.750;5.888;2024-01-27T08:48:07;103359.72;;;7.15;100.00
32320;BME280;19080;51.750;5.888;2024-01-27T08:50:34;103379.94;;;7.66;100.00
32320;BME280;19080;51.750;5.888;2024-01-27T08:53:01;103352.88;;;8.23;100.00
32320;BME280;19080;51.750;5.888;2024-01-27T08:55:28;103365.63;;;9.12;100.00
32320;BME280;19080;51.750;5.888;2024-01-27T08:57:56;103363.88;;;8.70;100.00
32320;BME280;19080;51.750;5.888;2024-01-27T09:00:23;103364.88;;;8.31;100.00
32320;BME280;19080;51.750;5.888;2024-01-27T09:02:51;103355.41;;;8.48;100.00
32320;BME280;19080;51.750;5.888;2024-01-27T09:05:18;103381.19;;;8.24;100.00
32320;BME280;19080;51.750;5.888;2024-01-27T09:07:45;103374.25;;;8.13;100.00
32320;BME280;19080;51.750;5.888;2024-01-27T09:10:12;103378.66;;;8.67;100.00
32320;BME280;19080;51.750;5.888;2024-01-27T09:12:42;103389.06;;;8.64;100.00
32320;BME280;19080;51.750;5.888;2024-01-27T09:15:09;103396.84;;;8.21;100.00
32320;BME280;19080;51.750;5.888;2024-01-27T09:17:36;103394.09;;;8.20;100.00
32320;BME280;19080;51.750;5.888;2024-01-27T09:20:03;103385.78;;;8.68;100.00
32320;BME280;19080;51.750;5.888;2024-01-27T09:22:30;103387.75;;;8.85;100.00
32320;BME280;19080;51.750;5.888;2024-01-27T09:24:57;103389.97;;;9.94;100.00
32320;BME280;19080;51.750;5.888;2024-01-27T09:27:24;103378.81;;;10.61;100.00
32320;BME280;19080;51.750;5.888;2024-01-27T09:29:51;103331.75;;;10.59;100.00
32320;BME280;19080;51.750;5.888;2024-01-27T09:32:17;103392.13;;;11.60;100.00
32320;BME280;19080;51.750;5.888;2024-01-27T09:34:44;103395.09;;;11.83;100.00
32320;BME280;19080;51.750;5.888;2024-01-27T09:37:11;103331.53;;;12.26;100.00
32320;BME280;19080;51.750;5.888;2024-01-27T09:39:38;103392.28;;;13.09;100.00
32320;BME280;19080;51.750;5.888;2024-01-27T09:42:06;103372.50;;;13.03;98.63
32320;BME280;19080;51.750;5.888;2024-01-27T09:44:35;103393.41;;;13.14;98.96
32320;BME280;19080;51.750;5.888;2024-01-27T09:47:02;103412.81;;;13.29;89.21
32320;BME280;19080;51.750;5.888;2024-01-27T09:49:29;103426.44;;;13.75;81.21
32320;BME280;19080;51.750;5.888;2024-01-27T09:51:58;103414.69;;;14.13;74.57
32320;BME280;19080;51.750;5.888;2024-01-27T09:54:25;103412.94;;;14.57;66.74
32320;BME280;19080;51.750;5.888;2024-01-27T09:56:51;103399.53;;;15.02;62.30
32320;BME280;19080;51.750;5.888;2024-01-27T09:59:19;103404.53;;;15.40;64.06
32320;BME280;19080;51.750;5.888;2024-01-27T10:01:48;103417.31;;;15.73;58.14
32320;BME280;19080;51.750;5.888;2024-01-27T10:04:15;103420.72;;;15.69;59.44
32320;BME280;19080;51.750;5.888;2024-01-27T10:06:42;103415.75;;;15.79;60.37
32320;BME280;19080;51.750;5.888;2024-01-27T10:09:09;103414.63;;;16.25;56.07
32320;BME280;19080;51.750;5.888;2024-01-27T10:11:38;103411.69;;;16.44;55.11
32320;BME280;19080;51.750;5.888;2024-01-27T10:14:06;103420.69;;;16.46;54.23
32320;BME280;19080;51.750;5.888;2024-01-27T10:16:43;103405.94;;;16.05;54.48
32320;BME280;19080;51.750;5.888;2024-01-27T10:19:18;103423.28;;;16.16;54.94
32320;BME280;19080;51.750;5.888;2024-01-27T10:21:45;103422.41;;;16.44;53.59
32320;BME280;19080;51.750;5.888;2024-01-27T10:24:13;103427.88;;;16.20;52.60
32320;BME280;19080;51.750;5.888;2024-01-27T10:26:40;103425.81;;;16.12;56.25
32320;BME280;19080;51.750;5.888;2024-01-27T10:29:08;103433.31;;;15.71;56.50
32320;BME280;19080;51.750;5.888;2024-01-27T10:31:36;103430.59;;;15.95;55.14
32320;BME280;19080;51.750;5.888;2024-01-27T10:34:03;103426.88;;;16.71;54.75
32320;BME280;19080;51.750;5.888;2024-01-27T10:36:43;103419.97;;;17.09;51.74
32320;BME280;19080;51.750;5.888;2024-01-27T10:39:19;103420.59;;;17.30;53.11
32320;BME280;19080;51.750;5.888;2024-01-27T10:41:48;103413.06;;;17.17;53.88
32320;BME280;19080;51.750;5.888;2024-01-27T10:44:16;103417.06;;;17.64;51.55
32320;BME280;19080;51.750;5.888;2024-01-27T10:46:45;103419.69;;;17.63;49.19
32320;BME280;19080;51.750;5.888;2024-01-27T10:49:16;103408.41;;;17.74;50.41
32320;BME280;19080;51.750;5.888;2024-01-27T10:51:45;103413.50;;;17.98;52.10
32320;BME280;19080;51.750;5.888;2024-01-27T10:54:14;103406.56;;;18.06;50.61
32320;BME280;19080;51.750;5.888;2024-01-27T10:56:42;103407.38;;;18.04;49.92
32320;BME280;19080;51.750;5.888;2024-01-27T10:59:11;103409.56;;;17.84;48.87
32320;BME280;19080;51.750;5.888;2024-01-27T11:01:40;103390.69;;;17.49;50.25
32320;BME280;19080;51.750;5.888;2024-01-27T11:04:08;103407.72;;;17.50;49.17
32320;BME280;19080;51.750;5.888;2024-01-27T11:06:37;103410.44;;;17.18;50.80
32320;BME280;19080;51.750;5.888;2024-01-27T11:09:05;103405.53;;;17.37;51.75
32320;BME280;19080;51.750;5.888;2024-01-27T11:11:35;103387.34;;;17.25;50.48
32320;BME280;19080;51.750;5.888;2024-01-27T11:14:02;103387.13;;;17.50;51.58
32320;BME280;19080;51.750;5.888;2024-01-27T11:16:29;103375.31;;;17.11;50.58
32320;BME280;19080;51.750;5.888;2024-01-27T11:18:56;103390.66;;;16.30;50.44
32320;BME280;19080;51.750;5.888;2024-01-27T11:21:23;103395.38;;;15.57;52.92
32320;BME280;19080;51.750;5.888;2024-01-27T11:23:49;103395.25;;;15.30;53.83
32320;BME280;19080;51.750;5.888;2024-01-27T11:26:20;103387.78;;;15.71;53.81
32320;BME280;19080;51.750;5.888;2024-01-27T11:28:48;103383.25;;;15.69;53.85
32320;BME280;19080;51.750;5.888;2024-01-27T11:31:17;103366.91;;;15.86;53.10
32320;BME280;19080;51.750;5.888;2024-01-27T11:33:49;103358.97;;;15.64;53.98
32320;BME280;19080;51.750;5.888;2024-01-27T11:36:21;103368.03;;;15.42;54.07
32320;BME280;19080;51.750;5.888;2024-01-27T11:38:50;103381.91;;;15.81;54.01
32320;BME280;19080;51.750;5.888;2024-01-27T11:41:27;103381.06;;;16.09;54.11
32320;BME280;19080;51.750;5.888;2024-01-27T11:43:58;103354.75;;;16.24;54.10
32320;BME280;19080;51.750;5.888;2024-01-27T11:46:28;103366.59;;;16.04;52.50
32320;BME280;19080;51.750;5.888;2024-01-27T11:48:55;103366.09;;;15.89;51.71
32320;BME280;19080;51.750;5.888;2024-01-27T11:51:22;103360.75;;;15.63;52.46
32320;BME280;19080;51.750;5.888;2024-01-27T11:53:50;103365.66;;;15.77;54.20
32320;BME280;19080;51.750;5.888;2024-01-27T11:56:17;103357.91;;;15.84;52.83
32320;BME280;19080;51.750;5.888;2024-01-27T11:58:48;103368.22;;;15.99;54.88
32320;BME280;19080;51.750;5.888;2024-01-27T12:01:15;103364.97;;;16.09;53.45
32320;BME280;19080;51.750;5.888;2024-01-27T12:03:42;103368.78;;;16.16;53.77
32320;BME280;19080;51.750;5.888;2024-01-27T12:06:11;103367.50;;;15.52;51.02
32320;BME280;19080;51.750;5.888;2024-01-27T12:08:41;103368.44;;;15.29;52.57
32320;BME280;19080;51.750;5.888;2024-01-27T12:11:14;103374.78;;;15.07;53.50
32320;BME280;19080;51.750;5.888;2024-01-27T12:13:43;103362.09;;;15.02;54.69
32320;BME280;19080;51.750;5.888;2024-01-27T12:16:10;103361.56;;;15.12;55.73
32320;BME280;19080;51.750;5.888;2024-01-27T12:18:37;103341.59;;;15.02;54.26
32320;BME280;19080;51.750;5.888;2024-01-27T12:21:03;103366.75;;;14.61;52.85
32320;BME280;19080;51.750;5.888;2024-01-27T12:23:30;103368.75;;;14.01;54.45
32320;BME280;19080;51.750;5.888;2024-01-27T12:25:57;103355.97;;;13.72;56.62
32320;BME280;19080;51.750;5.888;2024-01-27T12:28:23;103370.25;;;14.15;57.10
32320;BME280;19080;51.750;5.888;2024-01-27T12:30:52;103368.41;;;14.14;56.57
32320;BME280;19080;51.750;5.888;2024-01-27T12:33:19;103363.78;;;13.46;57.53
32320;BME280;19080;51.750;5.888;2024-01-27T12:35:51;103360.22;;;12.88;60.50
32320;BME280;19080;51.750;5.888;2024-01-27T12:38:22;103364.00;;;12.36;63.23
32320;BME280;19080;51.750;5.888;2024-01-27T12:40:48;103377.59;;;11.88;66.76
32320;BME280;19080;51.750;5.888;2024-01-27T12:43:15;103378.53;;;11.38;74.44
32320;BME280;19080;51.750;5.888;2024-01-27T12:45:42;103369.44;;;11.00;82.87